createdAt,value
2019-03-12T00:00:48.857Z,2.42
2019-03-12T00:03:18.199Z,2.80
2019-03-12T00:05:47.493Z,2.42
2019-03-12T00:08:16.818Z,2.17
2019-03-12T00:10:46.098Z,2.80
2019-03-12T00:13:15.412Z,2.55
2019-03-12T00:15:44.688Z,3.35
2019-03-12T00:18:13.970Z,3.17
2019-03-12T00:20:43.293Z,2.52
2019-03-12T00:23:12.644Z,2.80
2019-03-12T00:25:41.941Z,3.15
2019-03-12T00:28:11.493Z,2.92
2019-03-12T00:30:40.770Z,2.85
2019-03-12T00:33:10.150Z,2.98
2019-03-12T00:35:39.433Z,3.15
2019-03-12T00:38:08.722Z,3.02
2019-03-12T00:40:38.017Z,2.70
2019-03-12T00:43:07.305Z,3.20
2019-03-12T00:45:36.679Z,2.92
2019-03-12T00:48:05.975Z,2.35
2019-03-12T00:50:35.254Z,2.90
2019-03-12T00:53:04.545Z,3.60
2019-03-12T00:55:33.942Z,2.50
2019-03-12T00:58:03.292Z,2.37
2019-03-12T01:00:32.578Z,2.45
2019-03-12T01:03:01.881Z,2.58
2019-03-12T01:05:31.175Z,2.70
2019-03-12T01:08:00.719Z,2.70
2019-03-12T01:10:30.095Z,2.17
2019-03-12T01:12:59.628Z,2.20
2019-03-12T01:15:28.994Z,3.45
2019-03-12T01:17:58.298Z,2.12
2019-03-12T01:20:27.592Z,2.50
2019-03-12T01:22:57.116Z,2.37
2019-03-12T01:25:26.792Z,2.95
2019-03-12T01:27:56.080Z,2.30
2019-03-12T01:30:25.367Z,2.58
2019-03-12T01:32:54.663Z,2.58
2019-03-12T01:35:23.947Z,3.00
2019-03-12T01:37:53.254Z,2.40
2019-03-12T01:40:22.524Z,2.92
2019-03-12T01:42:52.630Z,2.52
2019-03-12T01:45:21.954Z,2.37
2019-03-12T01:47:51.234Z,2.30
2019-03-12T01:50:20.534Z,2.20
2019-03-12T01:52:49.816Z,1.95
2019-03-12T01:55:19.481Z,2.27
2019-03-12T01:57:48.762Z,2.22
2019-03-12T02:00:19.741Z,3.45
2019-03-12T02:02:49.032Z,2.33
2019-03-12T02:05:18.321Z,3.00
2019-03-12T02:07:47.667Z,2.50
2019-03-12T02:10:16.924Z,2.50
2019-03-12T02:12:46.269Z,2.75
2019-03-12T02:15:16.979Z,3.50
2019-03-12T02:17:46.273Z,3.42
2019-03-12T02:20:18.263Z,3.65
2019-03-12T02:22:47.544Z,3.43
2019-03-12T02:25:20.105Z,3.17
2019-03-12T02:27:49.392Z,3.27
2019-03-12T02:30:22.464Z,3.90
2019-03-12T02:32:51.945Z,3.58
2019-03-12T02:35:21.210Z,3.95
2019-03-12T02:37:50.765Z,4.40
2019-03-12T02:40:20.142Z,4.00
2019-03-12T02:42:49.425Z,3.42
2019-03-12T02:45:18.736Z,3.77
2019-03-12T02:47:48.025Z,3.77
2019-03-12T02:50:17.397Z,4.08
2019-03-12T02:52:47.053Z,3.92
2019-03-12T02:55:16.358Z,4.55
2019-03-12T02:57:45.731Z,3.95
2019-03-12T03:00:21.765Z,4.03
2019-03-12T03:02:51.246Z,4.17
2019-03-12T03:05:20.803Z,3.83
2019-03-12T03:07:51.774Z,3.95
2019-03-12T03:10:21.071Z,4.03
2019-03-12T03:12:50.515Z,4.53
2019-03-12T03:15:26.702Z,3.67
2019-03-12T03:17:56.072Z,3.75
2019-03-12T03:20:25.374Z,3.77
2019-03-12T03:22:54.942Z,3.87
2019-03-12T03:25:24.480Z,4.17
2019-03-12T03:27:53.847Z,4.37
2019-03-12T03:30:26.539Z,3.67
2019-03-12T03:32:55.882Z,3.87
2019-03-12T03:35:25.459Z,4.25
2019-03-12T03:37:54.818Z,4.10
2019-03-12T03:40:24.122Z,4.00
2019-03-12T03:42:53.498Z,4.37
2019-03-12T03:45:22.788Z,3.65
2019-03-12T03:47:52.099Z,4.30
2019-03-12T03:50:21.638Z,3.37
2019-03-12T03:52:50.945Z,3.22
2019-03-12T03:55:22.153Z,3.85
2019-03-12T03:57:51.537Z,4.10
2019-03-12T04:00:27.007Z,3.50
2019-03-12T04:02:56.299Z,3.85
2019-03-12T04:05:25.611Z,3.75
2019-03-12T04:07:55.160Z,3.55
2019-03-12T04:10:24.457Z,4.08
2019-03-12T04:12:53.745Z,3.52
2019-03-12T04:15:23.120Z,4.08
2019-03-12T04:21:05.301Z,4.15
2019-03-12T04:23:37.791Z,3.58
2019-03-12T04:26:07.116Z,3.60
2019-03-12T04:28:36.409Z,3.33
2019-03-12T04:31:05.695Z,3.08
2019-03-12T04:34:00.643Z,3.58
2019-03-12T04:36:30.239Z,3.65
2019-03-12T04:38:59.792Z,3.25
2019-03-12T04:41:29.106Z,3.27
2019-03-12T04:43:58.391Z,3.25
2019-03-12T04:46:27.730Z,3.08
2019-03-12T04:48:57.042Z,2.47
2019-03-12T04:51:26.610Z,3.08
2019-03-12T04:53:55.901Z,3.60
2019-03-12T04:56:25.298Z,3.47
2019-03-12T04:58:54.715Z,3.02
2019-03-12T05:01:23.971Z,2.95
2019-03-12T05:03:53.278Z,2.50
2019-03-12T05:06:22.642Z,2.90
2019-03-12T05:08:51.934Z,2.90
2019-03-12T05:11:21.478Z,3.08
2019-03-12T05:14:26.441Z,2.65
2019-03-12T05:17:05.887Z,3.02
2019-03-12T05:19:35.471Z,2.77
2019-03-12T05:22:04.831Z,2.90
2019-03-12T05:24:34.190Z,2.75
2019-03-12T05:27:03.615Z,2.83
2019-03-12T05:29:32.936Z,2.77
2019-03-12T05:32:02.253Z,2.67
2019-03-12T05:34:31.535Z,2.65
2019-03-12T05:37:01.097Z,2.95
2019-03-12T05:39:30.381Z,2.75
2019-03-12T05:41:59.690Z,2.47
2019-03-12T05:44:28.993Z,2.33
2019-03-12T05:46:58.306Z,2.40
2019-03-12T05:49:27.699Z,2.30
2019-03-12T05:51:57.000Z,3.42
2019-03-12T05:54:26.296Z,2.40
2019-03-12T05:56:55.595Z,2.65
2019-03-12T05:59:24.882Z,3.12
2019-03-12T06:01:54.260Z,3.27
2019-03-12T06:04:23.566Z,3.05
2019-03-12T06:06:52.845Z,3.15
2019-03-12T06:09:30.306Z,2.80
2019-03-12T06:11:53.175Z,2.80
2019-03-12T06:14:22.571Z,2.83
2019-03-12T06:16:51.880Z,3.22
2019-03-12T06:19:21.168Z,3.55
2019-03-12T06:21:50.484Z,3.30
2019-03-12T06:24:19.777Z,3.60
2019-03-12T06:26:49.080Z,3.10
2019-03-12T06:29:18.368Z,2.70
2019-03-12T06:31:49.307Z,2.85
2019-03-12T06:34:20.255Z,3.67
2019-03-12T06:36:51.296Z,3.10
2019-03-12T06:39:38.078Z,3.05
2019-03-12T06:42:24.960Z,2.87
2019-03-12T06:44:58.539Z,2.80
2019-03-12T06:50:17.782Z,3.17
2019-03-12T06:52:51.526Z,3.02
2019-03-12T06:55:22.470Z,3.42
2019-03-12T06:58:19.690Z,3.20
2019-03-12T07:01:08.163Z,3.02
2019-03-12T07:03:48.986Z,3.05
2019-03-12T07:06:22.879Z,3.35
2019-03-12T07:08:53.818Z,3.45
2019-03-12T07:11:36.583Z,2.72
2019-03-12T07:14:16.813Z,3.02
2019-03-12T07:16:47.866Z,3.58
2019-03-12T07:19:30.844Z,4.00
2019-03-12T07:22:16.854Z,3.20
2019-03-12T07:24:50.447Z,4.47
2019-03-12T07:27:27.102Z,4.55
2019-03-12T07:30:13.935Z,3.98
2019-03-12T07:32:56.204Z,2.75
2019-03-12T07:35:44.314Z,2.98
2019-03-12T07:38:15.290Z,2.92
2019-03-12T07:41:01.858Z,3.45
2019-03-12T07:43:32.779Z,3.05
2019-03-12T07:46:01.861Z,2.58
2019-03-12T07:48:36.980Z,3.05
2019-03-12T07:51:10.858Z,3.10
2019-03-12T07:53:58.618Z,2.77
2019-03-12T07:56:22.420Z,2.77
2019-03-12T07:59:09.174Z,3.10
2019-03-12T08:01:49.121Z,2.95
2019-03-12T08:04:21.121Z,2.08
2019-03-12T08:06:52.074Z,2.77
2019-03-12T08:09:23.010Z,3.17
2019-03-12T08:12:10.129Z,3.37
2019-03-12T08:14:43.787Z,3.05
2019-03-12T08:17:30.712Z,2.75
2019-03-12T08:20:13.599Z,2.80
2019-03-12T08:22:50.527Z,2.60
2019-03-12T08:25:30.400Z,2.50
2019-03-12T08:28:01.420Z,1.92
2019-03-12T08:30:44.147Z,2.52
2019-03-12T08:33:31.319Z,2.15
2019-03-12T08:36:02.512Z,2.00
2019-03-12T08:38:36.312Z,2.00
2019-03-12T08:41:12.781Z,2.75
2019-03-12T08:43:59.892Z,1.98
2019-03-12T08:46:47.055Z,2.17
2019-03-12T08:49:20.683Z,2.30
2019-03-12T08:52:07.809Z,2.35
2019-03-12T08:54:53.372Z,2.30
2019-03-12T08:57:16.799Z,2.67
2019-03-12T08:59:56.184Z,2.80
2019-03-12T09:02:45.012Z,2.47
2019-03-12T09:05:24.436Z,3.45
2019-03-12T09:08:04.515Z,3.08
2019-03-12T09:10:36.716Z,2.52
2019-03-12T09:13:13.614Z,2.50
2019-03-12T09:15:45.282Z,2.20
2019-03-12T09:18:32.071Z,2.67
2019-03-12T09:21:11.967Z,2.25
2019-03-12T09:23:58.954Z,3.02
2019-03-12T09:26:31.248Z,2.10
2019-03-12T09:29:00.353Z,2.80
2019-03-12T09:31:29.505Z,2.05
2019-03-12T09:34:00.505Z,3.25
2019-03-12T09:36:43.588Z,3.20
2019-03-12T09:39:18.765Z,3.35
2019-03-12T09:42:00.420Z,2.37
2019-03-12T09:44:40.816Z,3.00
2019-03-12T09:47:11.883Z,2.02
2019-03-12T09:49:57.982Z,2.70
2019-03-12T09:52:27.082Z,2.62
2019-03-12T09:55:00.504Z,2.80
2019-03-12T09:57:33.973Z,3.00
2019-03-12T10:00:16.029Z,2.30
2019-03-12T10:02:56.643Z,2.70
2019-03-12T10:05:27.720Z,2.20
2019-03-12T10:08:04.628Z,2.90
2019-03-12T10:10:38.482Z,2.50
2019-03-12T10:13:12.974Z,3.05
2019-03-12T10:15:43.938Z,2.98
2019-03-12T10:18:14.892Z,2.40
2019-03-12T10:20:48.770Z,2.60
2019-03-12T10:23:35.946Z,3.08
2019-03-12T10:26:24.920Z,2.35
2019-03-12T10:29:12.100Z,2.77
2019-03-12T10:31:45.722Z,2.17
2019-03-12T10:34:14.797Z,2.47
2019-03-12T10:36:45.775Z,2.83
2019-03-12T10:39:55.190Z,2.17
2019-03-12T10:42:27.259Z,2.00
2019-03-12T10:45:14.127Z,2.37
2019-03-12T10:47:45.324Z,2.47
2019-03-12T10:50:14.711Z,2.47
2019-03-12T10:52:44.128Z,2.37
2019-03-12T10:55:14.121Z,2.50
2019-03-12T10:57:43.714Z,2.40
2019-03-12T11:00:18.060Z,2.47
2019-03-12T11:02:47.374Z,2.30
2019-03-12T11:05:17.130Z,2.37
2019-03-12T11:07:46.436Z,3.10
2019-03-12T11:10:19.854Z,2.37
2019-03-12T11:12:49.147Z,2.42
2019-03-12T11:15:18.459Z,2.55
2019-03-12T11:17:49.859Z,2.58
2019-03-12T11:20:26.441Z,2.17
2019-03-12T11:22:56.008Z,2.20
2019-03-12T11:25:27.612Z,2.42
2019-03-12T11:27:56.331Z,2.70
2019-03-12T11:30:25.618Z,2.72
2019-03-12T11:32:54.921Z,2.67
2019-03-12T11:35:24.236Z,2.60
2019-03-12T11:37:53.559Z,2.37
2019-03-12T11:40:31.578Z,1.65
2019-03-12T11:42:57.228Z,2.15
2019-03-12T11:45:36.367Z,2.20
2019-03-12T11:47:57.640Z,2.37
2019-03-12T11:50:27.525Z,1.70
2019-03-12T11:52:59.273Z,1.62
2019-03-12T11:55:28.465Z,2.45
2019-03-12T11:57:57.947Z,2.70
2019-03-12T12:00:29.101Z,2.60
2019-03-12T12:03:00.305Z,1.80
2019-03-12T12:05:30.001Z,2.45
2019-03-12T12:07:59.293Z,1.82
2019-03-12T12:10:29.872Z,2.05
2019-03-12T12:12:59.299Z,2.35
2019-03-12T12:15:28.616Z,1.70
2019-03-12T12:17:58.167Z,2.30
2019-03-12T12:20:30.054Z,2.45
2019-03-12T12:22:58.580Z,2.27
2019-03-12T12:25:27.979Z,2.42
2019-03-12T12:27:57.276Z,1.92
2019-03-12T12:30:26.917Z,2.05
2019-03-12T12:32:56.297Z,2.17
2019-03-12T12:35:25.588Z,2.45
2019-03-12T12:37:54.878Z,2.00
2019-03-12T12:40:24.212Z,2.80
2019-03-12T12:42:53.586Z,2.50
2019-03-12T12:45:38.554Z,2.20
2019-03-12T12:48:07.927Z,2.30
2019-03-12T12:50:37.293Z,2.67
2019-03-12T12:53:06.766Z,2.00
2019-03-12T12:55:36.384Z,2.58
2019-03-12T12:58:05.755Z,2.37
2019-03-12T13:00:38.008Z,2.30
2019-03-12T13:03:06.081Z,2.22
2019-03-12T13:05:35.457Z,2.70
2019-03-12T13:08:05.020Z,2.98
2019-03-12T13:10:35.719Z,2.72
2019-03-12T13:13:05.088Z,2.45
2019-03-12T13:15:34.403Z,2.22
2019-03-12T13:18:03.691Z,2.17
2019-03-12T13:20:32.984Z,1.82
2019-03-12T13:23:02.370Z,2.17
2019-03-12T13:25:31.659Z,2.50
2019-03-12T13:28:00.947Z,2.15
2019-03-12T13:30:30.262Z,2.70
2019-03-12T13:32:59.569Z,2.27
2019-03-12T13:35:28.926Z,2.10
2019-03-12T13:37:58.227Z,2.60
2019-03-12T13:40:27.595Z,2.40
2019-03-12T13:42:57.081Z,3.05
2019-03-12T13:45:32.230Z,2.72
2019-03-12T13:48:01.681Z,2.25
2019-03-12T13:50:31.089Z,2.58
2019-03-12T13:53:02.014Z,2.50
2019-03-12T13:55:31.393Z,2.87
2019-03-12T13:58:00.784Z,2.47
2019-03-12T14:00:33.164Z,2.55
2019-03-12T14:03:01.122Z,2.30
2019-03-12T14:05:30.501Z,2.67
2019-03-12T14:07:59.789Z,2.30
2019-03-12T14:10:29.163Z,2.40
2019-03-12T14:12:58.635Z,2.83
2019-03-12T14:15:32.498Z,2.62
2019-03-12T14:18:02.048Z,2.00
2019-03-12T14:20:48.970Z,2.62
2019-03-12T14:23:29.406Z,2.67
2019-03-12T14:25:58.694Z,3.22
2019-03-12T14:28:28.258Z,3.10
2019-03-12T14:30:57.558Z,2.72
2019-03-12T14:33:26.842Z,3.42
2019-03-12T14:35:56.137Z,3.25
2019-03-12T14:38:25.521Z,4.17
2019-03-12T14:40:54.901Z,3.98
2019-03-12T14:43:24.202Z,3.40
2019-03-12T14:45:53.490Z,3.65
2019-03-12T14:48:40.804Z,4.30
2019-03-12T14:51:35.932Z,3.20
2019-03-12T14:54:13.259Z,3.40
2019-03-12T14:56:43.468Z,3.00
2019-03-12T14:59:13.025Z,3.40
2019-03-12T15:01:42.413Z,2.62
2019-03-12T15:04:14.775Z,3.33
2019-03-12T15:06:42.835Z,3.27
2019-03-12T15:09:14.829Z,3.08
2019-03-12T15:11:44.137Z,2.65
2019-03-12T15:14:13.521Z,2.98
2019-03-12T15:16:42.823Z,2.60
2019-03-12T15:19:12.225Z,2.90
2019-03-12T15:21:41.623Z,2.27
2019-03-12T15:24:11.072Z,2.98
2019-03-12T15:26:40.364Z,2.55
2019-03-12T15:29:09.674Z,2.47
2019-03-12T15:31:40.358Z,2.27
2019-03-12T15:34:10.213Z,2.37
2019-03-12T15:36:39.754Z,2.00
2019-03-12T15:39:09.230Z,2.20
2019-03-12T15:41:38.761Z,2.67
2019-03-12T15:44:09.889Z,2.20
2019-03-12T15:46:39.490Z,2.12
2019-03-12T15:49:09.008Z,2.40
2019-03-12T15:51:38.746Z,2.58
2019-03-12T15:54:08.505Z,3.52
2019-03-12T15:56:38.227Z,2.10
2019-03-12T15:59:07.775Z,3.08
2019-03-12T16:01:37.381Z,3.08
2019-03-12T16:04:06.981Z,2.62
2019-03-12T16:06:36.469Z,2.27
2019-03-12T16:09:06.972Z,2.77
2019-03-12T16:11:36.429Z,2.10
2019-03-12T16:14:06.109Z,2.35
2019-03-12T16:16:35.664Z,2.85
2019-03-12T16:19:05.088Z,2.20
2019-03-12T16:21:34.613Z,2.62
2019-03-12T16:24:04.120Z,2.52
2019-03-12T16:26:33.501Z,2.70
2019-03-12T16:29:03.247Z,2.37
2019-03-12T16:31:32.816Z,2.35
2019-03-12T16:34:02.387Z,2.83
2019-03-12T16:36:31.916Z,2.67
2019-03-12T16:39:01.829Z,2.47
2019-03-12T16:41:31.850Z,2.08
2019-03-12T16:44:01.349Z,2.65
2019-03-12T16:46:30.840Z,2.62
2019-03-12T16:49:00.313Z,2.58
2019-03-12T16:51:29.883Z,2.58
2019-03-12T16:53:59.454Z,2.80
2019-03-12T16:56:28.874Z,2.47
2019-03-12T16:58:58.393Z,2.77
2019-03-12T17:01:28.001Z,2.22
2019-03-12T17:03:57.503Z,2.65
2019-03-12T17:06:27.171Z,2.45
2019-03-12T17:08:58.468Z,2.42
2019-03-12T17:11:28.210Z,2.52
2019-03-12T17:13:57.746Z,2.85
2019-03-12T17:16:27.547Z,2.42
2019-03-12T17:18:59.377Z,2.92
2019-03-12T17:21:28.737Z,3.02
2019-03-12T17:23:58.649Z,2.80
2019-03-12T17:26:28.554Z,3.20
2019-03-12T17:28:58.088Z,2.37
2019-03-12T17:31:27.751Z,2.70
2019-03-12T17:33:57.182Z,2.90
2019-03-12T17:36:28.471Z,2.98
2019-03-12T17:38:58.503Z,3.15
2019-03-12T17:41:28.393Z,2.77
2019-03-12T17:43:58.168Z,2.05
2019-03-12T17:46:27.952Z,2.72
2019-03-12T17:48:57.454Z,2.98
2019-03-12T17:51:30.462Z,2.50
2019-03-12T17:56:29.259Z,2.75
2019-03-12T17:58:59.712Z,2.98
2019-03-12T18:01:31.595Z,2.25
2019-03-12T18:04:01.849Z,2.70
2019-03-12T18:06:35.068Z,2.47
2019-03-12T18:09:08.920Z,3.47
2019-03-12T18:11:38.834Z,2.60
2019-03-12T18:14:12.697Z,2.98
2019-03-12T18:16:43.387Z,3.20
2019-03-12T18:19:15.377Z,2.00
2019-03-12T18:21:47.868Z,1.80
2019-03-12T18:24:21.024Z,1.30
2019-03-12T18:26:52.450Z,1.30
2019-03-12T18:29:23.528Z,1.85
2019-03-12T18:31:53.293Z,1.87
2019-03-12T18:34:28.332Z,1.27
2019-03-12T18:36:59.792Z,1.85
2019-03-12T18:39:30.004Z,2.05
2019-03-12T18:42:01.538Z,1.47
2019-03-12T18:44:32.200Z,0.90
2019-03-12T18:47:02.176Z,0.70
2019-03-12T18:49:34.225Z,0.80
2019-03-12T18:52:04.205Z,1.13
2019-03-12T18:54:33.974Z,1.02
2019-03-12T18:57:03.728Z,1.37
2019-03-12T18:59:33.237Z,0.80
2019-03-12T19:02:03.147Z,1.15
2019-03-12T19:04:35.519Z,1.32
2019-03-12T19:07:05.091Z,0.98
2019-03-12T19:09:34.554Z,0.93
2019-03-12T19:12:05.039Z,0.93
2019-03-12T19:14:34.943Z,1.22
2019-03-12T19:17:05.673Z,0.80
2019-03-12T19:19:35.169Z,0.70
2019-03-12T19:22:04.805Z,1.40
2019-03-12T19:24:34.411Z,0.80
2019-03-12T19:27:04.715Z,1.32
2019-03-12T19:29:34.234Z,0.88
2019-03-12T19:32:05.559Z,0.53
2019-03-12T19:34:35.065Z,0.95
2019-03-12T19:37:04.585Z,0.80
2019-03-12T19:39:34.007Z,1.02
2019-03-12T19:42:03.594Z,1.10
2019-03-12T19:44:33.583Z,1.30
2019-03-12T19:47:04.546Z,1.00
2019-03-12T19:49:34.462Z,1.00
2019-03-12T19:52:10.241Z,1.32
2019-03-12T19:54:40.032Z,1.05
2019-03-12T19:57:09.884Z,1.22
2019-03-12T19:59:39.333Z,1.55
2019-03-12T20:02:16.051Z,0.82
2019-03-12T20:04:47.250Z,1.10
2019-03-12T20:07:12.216Z,1.00
2019-03-12T20:09:43.958Z,1.07
2019-03-12T20:12:24.426Z,1.05
2019-03-12T20:15:28.694Z,1.12
2019-03-12T20:18:52.812Z,1.40
2019-03-12T20:25:13.144Z,1.02
2019-03-12T20:30:56.246Z,1.32
2019-03-12T20:34:04.595Z,1.37
2019-03-12T20:37:07.446Z,2.33
2019-03-12T20:40:26.068Z,1.32
2019-03-12T20:43:22.828Z,1.67
2019-03-12T20:46:28.093Z,1.30
2019-03-12T20:49:11.730Z,1.47
2019-03-12T20:52:14.646Z,1.70
2019-03-12T20:55:17.057Z,1.20
2019-03-12T20:58:20.571Z,1.80
2019-03-12T21:01:38.609Z,1.75
2019-03-12T21:04:25.264Z,1.45
2019-03-12T21:07:30.772Z,1.40
2019-03-12T21:10:30.167Z,1.22
2019-03-12T21:13:22.101Z,1.50
2019-03-12T21:16:18.786Z,1.87
2019-03-12T21:19:10.822Z,0.93
2019-03-12T21:22:18.215Z,1.30
2019-03-12T21:25:06.925Z,1.25
2019-03-12T21:28:17.989Z,1.65
2019-03-12T21:30:47.288Z,1.72
2019-03-12T21:33:18.089Z,1.75
2019-03-12T21:35:47.539Z,1.60
2019-03-12T21:38:17.209Z,1.80
2019-03-12T21:40:47.513Z,2.20
2019-03-12T21:43:16.798Z,2.02
2019-03-12T21:45:46.112Z,2.15
2019-03-12T21:48:15.404Z,1.82
2019-03-12T21:50:44.739Z,2.10
2019-03-12T21:53:14.131Z,1.65
2019-03-12T21:55:43.432Z,2.35
2019-03-12T21:58:12.723Z,2.80
2019-03-12T22:00:42.114Z,2.00
2019-03-12T22:03:11.405Z,2.10
2019-03-12T22:05:40.689Z,1.75
2019-03-12T22:08:09.987Z,2.02
2019-03-12T22:10:39.284Z,2.65
2019-03-12T22:13:08.583Z,2.20
2019-03-12T22:15:37.973Z,2.52
2019-03-12T22:18:07.268Z,2.62
2019-03-12T22:20:36.975Z,2.47
2019-03-12T22:23:10.995Z,2.45
2019-03-12T22:25:40.305Z,1.90
2019-03-12T22:28:09.600Z,2.17
2019-03-12T22:30:38.967Z,2.00
2019-03-12T22:33:08.279Z,2.02
2019-03-12T22:35:37.580Z,2.10
2019-03-12T22:38:06.870Z,2.33
2019-03-12T22:40:36.187Z,2.30
2019-03-12T22:43:05.473Z,2.50
2019-03-12T22:45:34.756Z,2.92
2019-03-12T22:48:04.062Z,3.10
2019-03-12T22:50:33.425Z,2.20
2019-03-12T22:53:02.795Z,2.80
2019-03-12T22:55:32.364Z,3.02
2019-03-12T22:58:01.664Z,2.10
2019-03-12T23:00:34.846Z,2.08
2019-03-12T23:03:04.155Z,1.90
2019-03-12T23:05:33.516Z,2.22
2019-03-12T23:08:02.810Z,2.20
2019-03-12T23:10:32.194Z,2.05
2019-03-12T23:13:01.518Z,2.12
2019-03-12T23:15:30.803Z,2.00
2019-03-12T23:18:00.376Z,2.40
2019-03-12T23:20:29.771Z,2.10
2019-03-12T23:22:59.085Z,2.37
2019-03-12T23:25:28.453Z,2.10
2019-03-12T23:27:57.761Z,2.90
2019-03-12T23:30:28.866Z,2.75
2019-03-12T23:32:58.416Z,3.25
2019-03-12T23:35:27.790Z,3.12
2019-03-12T23:37:57.162Z,2.27
2019-03-12T23:40:26.457Z,2.40
2019-03-12T23:42:55.842Z,2.80
2019-03-12T23:45:25.221Z,2.58
2019-03-12T23:47:54.614Z,3.05
2019-03-12T23:50:23.914Z,2.42
2019-03-12T23:52:53.289Z,2.42
2019-03-12T23:55:22.753Z,2.87
2019-03-12T23:57:52.052Z,3.02
